Time;durP1;ratioP1;P1;durP2;ratioP2;P2;SDS_P1;SDS_P2;PMS_P1;PMS_P2;Temp;Humidity;BMP_temperature;BMP_pressure;BME280_temperature;BME280_humidity;BME280_pressure;Samples;Min_cycle;Max_cycle;Signal;HPM_P1;HPM_P2
2022/10/24 00:01:00;;;;;;;;;;;18.90;93.00;;;;;;5115303;28;19916;-43
2022/10/24 00:03:25;;;;;;;;;;;18.90;93.00;;;;;;5115627;28;19914;-43
2022/10/24 00:05:50;;;;;;;;;;;18.90;93.00;;;;;;5115513;28;19908;-45
2022/10/24 00:08:17;;;;;;;;;;;18.90;93.00;;;;;;5115610;28;19920;-43
2022/10/24 00:10:43;;;;;;;;;;;19.00;93.00;;;;;;5115512;28;19911;-43
2022/10/24 00:13:09;;;;;;;;;;;18.90;93.00;;;;;;5115067;28;19908;-46
2022/10/24 00:15:34;;;;;;;;;;;19.00;93.00;;;;;;5115060;28;20416;-45
2022/10/24 00:18:00;;;;;;;;;;;19.00;93.00;;;;;;5114974;28;19912;-43
2022/10/24 00:20:25;;;;;;;;;;;19.00;93.00;;;;;;5115013;28;19950;-43
2022/10/24 00:22:51;;;;;;;;;;;19.00;93.00;;;;;;5115205;28;19920;-43
2022/10/24 00:25:16;;;;;;;;;;;19.00;93.00;;;;;;5114185;28;19991;-43
2022/10/24 00:27:42;;;;;;;;;;;19.00;92.90;;;;;;5114828;28;20002;-46
2022/10/24 00:30:07;;;;;;;;;;;19.00;92.90;;;;;;5096843;28;19930;-47
2022/10/24 00:32:33;;;;;;;;;;;19.00;92.90;;;;;;5114800;28;19961;-45
2022/10/24 00:34:58;;;;;;;;;;;19.00;92.90;;;;;;5114960;28;19931;-45
2022/10/24 00:37:24;;;;;;;;;;;19.00;92.90;;;;;;5114959;28;19908;-45
2022/10/24 00:39:49;;;;;;;;;;;19.00;92.90;;;;;;5114682;28;19915;-48
2022/10/24 00:42:15;;;;;;;;;;;19.00;92.90;;;;;;5096610;28;20068;-44
2022/10/24 00:44:41;;;;;;;;;;;19.00;93.00;;;;;;5114854;28;20359;-46
2022/10/24 00:47:09;;;;;;;;;;;19.00;93.00;;;;;;5096913;28;19912;-43
2022/10/24 00:49:42;;;;;;;;;;;19.00;93.00;;;;;;5114529;28;20007;-45
2022/10/24 00:52:08;;;;;;;;;;;19.00;93.00;;;;;;5114867;28;19984;-45
2022/10/24 00:54:36;;;;;;;;;;;19.00;93.00;;;;;;5114687;28;19912;-47
2022/10/24 00:57:14;;;;;;;;;;;19.00;93.00;;;;;;5113475;28;20322;-43
2022/10/24 00:59:41;;;;;;;;;;;18.90;93.00;;;;;;5114752;28;19912;-45
2022/10/24 01:02:07;;;;;;;;;;;18.90;93.00;;;;;;5114567;28;19915;-45
2022/10/24 01:04:32;;;;;;;;;;;18.90;93.00;;;;;;5115008;28;20022;-43
2022/10/24 01:07:10;;;;;;;;;;;18.90;93.10;;;;;;5114275;28;19963;-45
2022/10/24 01:09:38;;;;;;;;;;;18.90;93.10;;;;;;5114616;28;19950;-44
2022/10/24 01:12:10;;;;;;;;;;;18.90;93.10;;;;;;5114560;28;19911;-44
2022/10/24 01:14:41;;;;;;;;;;;18.90;93.10;;;;;;5114469;28;19908;-45
2022/10/24 01:17:19;;;;;;;;;;;18.90;93.10;;;;;;5114208;28;20419;-46
2022/10/24 01:19:59;;;;;;;;;;;18.90;93.10;;;;;;5114180;28;19998;-46
2022/10/24 01:22:29;;;;;;;;;;;18.90;93.20;;;;;;5114057;28;20461;-43
2022/10/24 01:25:03;;;;;;;;;;;18.90;93.20;;;;;;5114098;28;19953;-43
2022/10/24 01:27:29;;;;;;;;;;;18.90;93.20;;;;;;5114464;28;20362;-43
2022/10/24 01:30:00;;;;;;;;;;;18.90;93.20;;;;;;5114446;28;19908;-44
2022/10/24 01:32:32;;;;;;;;;;;18.80;93.20;;;;;;5114396;28;19913;-45
2022/10/24 01:35:00;;;;;;;;;;;18.80;93.40;;;;;;5114629;28;19908;-43
2022/10/24 01:37:28;;;;;;;;;;;18.90;93.20;;;;;;5116478;28;19961;-44
2022/10/24 01:39:56;;;;;;;;;;;18.90;93.20;;;;;;5117092;28;19933;-45
2022/10/24 01:42:22;;;;;;;;;;;18.90;93.10;;;;;;5118412;28;19916;-47
2022/10/24 01:44:50;;;;;;;;;;;18.90;93.10;;;;;;5118361;28;19914;-46
2022/10/24 01:47:18;;;;;;;;;;;18.90;93.10;;;;;;5118201;28;20456;-43
2022/10/24 01:49:46;;;;;;;;;;;18.90;93.10;;;;;;5117956;28;19919;-47
2022/10/24 01:52:13;;;;;;;;;;;19.00;93.10;;;;;;5117873;28;19930;-44
2022/10/24 01:54:39;;;;;;;;;;;19.00;93.00;;;;;;5099780;28;19915;-45
2022/10/24 01:57:04;;;;;;;;;;;19.00;93.00;;;;;;5118159;28;19908;-47
2022/10/24 01:59:30;;;;;;;;;;;19.00;93.10;;;;;;5118143;28;20286;-44
2022/10/24 02:02:07;;;;;;;;;;;19.00;93.00;;;;;;5117984;28;19951;-43
2022/10/24 02:04:36;;;;;;;;;;;19.00;93.00;;;;;;5099727;28;19907;-44
2022/10/24 02:07:03;;;;;;;;;;;19.00;93.00;;;;;;5117763;28;19920;-46
2022/10/24 02:09:29;;;;;;;;;;;19.00;93.00;;;;;;5117614;28;19915;-43
2022/10/24 02:11:55;;;;;;;;;;;19.00;93.00;;;;;;5117490;28;20006;-45
2022/10/24 02:14:27;;;;;;;;;;;19.00;93.00;;;;;;5117474;28;20262;-42
2022/10/24 02:16:53;;;;;;;;;;;19.00;93.10;;;;;;5117562;28;19985;-43
2022/10/24 02:19:19;;;;;;;;;;;19.00;93.10;;;;;;5098994;28;20090;-43
2022/10/24 02:22:00;;;;;;;;;;;18.90;93.10;;;;;;5117588;28;20019;-43
2022/10/24 02:24:44;;;;;;;;;;;18.90;93.10;;;;;;5117394;28;20002;-46
2022/10/24 02:27:24;;;;;;;;;;;18.90;93.10;;;;;;5117224;28;19908;-43
2022/10/24 02:29:52;;;;;;;;;;;18.90;93.10;;;;;;5117088;28;19943;-43
2022/10/24 02:32:21;;;;;;;;;;;18.90;93.10;;;;;;5117496;28;20307;-44
2022/10/24 02:34:47;;;;;;;;;;;18.90;93.10;;;;;;5117122;28;19908;-44
2022/10/24 02:37:14;;;;;;;;;;;18.90;93.20;;;;;;5117093;28;19931;-43
2022/10/24 02:39:41;;;;;;;;;;;18.90;93.20;;;;;;5117000;28;19943;-43
2022/10/24 02:42:07;;;;;;;;;;;18.90;93.20;;;;;;5116909;28;19916;-43
2022/10/24 02:44:33;;;;;;;;;;;18.80;93.20;;;;;;5117218;28;19908;-43
2022/10/24 02:47:00;;;;;;;;;;;18.80;93.30;;;;;;5117325;28;19907;-45
2022/10/24 02:49:26;;;;;;;;;;;18.80;93.30;;;;;;5116388;28;19907;-45
2022/10/24 02:51:52;;;;;;;;;;;18.80;93.30;;;;;;5116998;28;20354;-46
2022/10/24 02:54:17;;;;;;;;;;;18.80;93.30;;;;;;5117011;28;19912;-44
2022/10/24 02:56:45;;;;;;;;;;;18.80;93.30;;;;;;5116891;28;20423;-49
2022/10/24 02:59:11;;;;;;;;;;;18.80;93.30;;;;;;5116869;28;19908;-45
2022/10/24 03:01:36;;;;;;;;;;;18.80;93.30;;;;;;5116865;28;19915;-44
2022/10/24 03:04:02;;;;;;;;;;;18.80;93.40;;;;;;5116519;28;19922;-46
2022/10/24 03:06:27;;;;;;;;;;;18.80;93.30;;;;;;5116441;28;20289;-44
2022/10/24 03:08:53;;;;;;;;;;;18.80;93.40;;;;;;5116744;28;19964;-44
2022/10/24 03:11:18;;;;;;;;;;;18.80;93.40;;;;;;5116256;28;19912;-44
2022/10/24 03:13:43;;;;;;;;;;;18.80;93.60;;;;;;5116275;28;19908;-44
2022/10/24 03:16:09;;;;;;;;;;;18.80;93.40;;;;;;5116231;28;19914;-46
2022/10/24 03:18:34;;;;;;;;;;;18.80;93.40;;;;;;5116500;28;20369;-43
2022/10/24 03:21:00;;;;;;;;;;;18.80;93.40;;;;;;5116051;28;19981;-43
2022/10/24 03:23:27;;;;;;;;;;;18.80;93.40;;;;;;5116365;28;19908;-46
2022/10/24 03:25:56;;;;;;;;;;;18.80;93.30;;;;;;5116299;28;19914;-44
2022/10/24 03:28:22;;;;;;;;;;;18.80;93.40;;;;;;5098104;28;19931;-48
2022/10/24 03:30:47;;;;;;;;;;;18.80;93.30;;;;;;5116301;28;20370;-43
2022/10/24 03:33:13;;;;;;;;;;;18.80;93.30;;;;;;5116078;28;19937;-44
2022/10/24 03:35:38;;;;;;;;;;;18.90;93.30;;;;;;5115835;28;19907;-46
2022/10/24 03:38:07;;;;;;;;;;;18.90;93.30;;;;;;5116192;28;19927;-44
2022/10/24 03:40:33;;;;;;;;;;;18.90;93.30;;;;;;5116067;28;20338;-45
2022/10/24 03:42:58;;;;;;;;;;;18.90;93.30;;;;;;5115687;28;19969;-45
2022/10/24 03:45:24;;;;;;;;;;;18.90;93.30;;;;;;5115666;28;19911;-45
2022/10/24 03:47:49;;;;;;;;;;;18.90;93.30;;;;;;5115752;28;19974;-44
2022/10/24 03:50:14;;;;;;;;;;;18.90;93.30;;;;;;5115506;28;20366;-45
2022/10/24 03:52:40;;;;;;;;;;;18.90;93.30;;;;;;5115384;28;19916;-44
2022/10/24 03:55:06;;;;;;;;;;;18.90;93.50;;;;;;5115450;28;19990;-47
2022/10/24 03:57:31;;;;;;;;;;;18.90;93.20;;;;;;5115278;28;20359;-43
2022/10/24 03:59:57;;;;;;;;;;;18.90;93.20;;;;;;5114662;28;19915;-43
2022/10/24 04:02:22;;;;;;;;;;;18.90;93.30;;;;;;5115286;28;20346;-43
2022/10/24 04:04:47;;;;;;;;;;;18.90;93.30;;;;;;5115309;28;19907;-45
2022/10/24 04:07:13;;;;;;;;;;;18.90;93.30;;;;;;5115667;28;20347;-43
2022/10/24 04:09:38;;;;;;;;;;;18.90;93.30;;;;;;5115373;28;19914;-46
2022/10/24 04:12:04;;;;;;;;;;;18.90;93.30;;;;;;5115282;28;19907;-43
2022/10/24 04:14:29;;;;;;;;;;;18.90;93.30;;;;;;5115028;28;19956;-46
2022/10/24 04:16:55;;;;;;;;;;;18.90;93.30;;;;;;5114977;28;19915;-44
2022/10/24 04:19:21;;;;;;;;;;;18.90;93.30;;;;;;5115157;28;19914;-44
2022/10/24 04:21:46;;;;;;;;;;;18.80;93.30;;;;;;5115074;28;19976;-45
2022/10/24 04:24:12;;;;;;;;;;;18.90;93.40;;;;;;5115205;28;20255;-44
2022/10/24 04:26:38;;;;;;;;;;;18.90;93.40;;;;;;5115062;28;19908;-46
2022/10/24 04:29:03;;;;;;;;;;;18.90;93.40;;;;;;5115167;28;19907;-43
2022/10/24 04:31:29;;;;;;;;;;;18.90;93.40;;;;;;5115103;28;19908;-43
2022/10/24 04:33:54;;;;;;;;;;;18.80;93.30;;;;;;5114937;28;19915;-42
2022/10/24 04:36:20;;;;;;;;;;;18.90;93.30;;;;;;5114948;28;20078;-43
2022/10/24 04:38:45;;;;;;;;;;;18.90;93.40;;;;;;5115243;28;19907;-45
2022/10/24 04:41:11;;;;;;;;;;;18.90;93.40;;;;;;5114895;28;19961;-45
2022/10/24 04:43:36;;;;;;;;;;;18.90;93.40;;;;;;5114724;28;19908;-46
2022/10/24 04:46:02;;;;;;;;;;;18.80;93.40;;;;;;5114629;28;19907;-43
2022/10/24 04:48:28;;;;;;;;;;;18.90;93.40;;;;;;5114868;28;19915;-44
2022/10/24 04:50:53;;;;;;;;;;;18.80;93.40;;;;;;5115011;28;19912;-44
2022/10/24 04:53:19;;;;;;;;;;;18.80;93.40;;;;;;5096501;28;20262;-44
2022/10/24 04:55:45;;;;;;;;;;;18.80;93.40;;;;;;5096220;28;19908;-45
2022/10/24 04:58:10;;;;;;;;;;;18.80;93.40;;;;;;5114313;28;19908;-44
2022/10/24 05:00:36;;;;;;;;;;;18.80;93.40;;;;;;5113433;28;19930;-48
2022/10/24 05:03:01;;;;;;;;;;;18.80;93.40;;;;;;5113340;28;20430;-45
2022/10/24 05:05:27;;;;;;;;;;;18.80;93.40;;;;;;5114469;28;19908;-44
2022/10/24 05:07:52;;;;;;;;;;;18.80;93.40;;;;;;5114204;28;20034;-44
2022/10/24 05:10:18;;;;;;;;;;;18.80;93.50;;;;;;5096116;28;19958;-45
2022/10/24 05:12:43;;;;;;;;;;;18.80;93.50;;;;;;5114000;28;20020;-44
2022/10/24 05:15:09;;;;;;;;;;;18.80;93.40;;;;;;5110530;28;19982;-45
2022/10/24 05:17:35;;;;;;;;;;;18.80;93.50;;;;;;5109234;28;19916;-43
2022/10/24 05:20:00;;;;;;;;;;;18.90;93.50;;;;;;5094970;28;20305;-44
2022/10/24 05:22:26;;;;;;;;;;;18.80;93.40;;;;;;5113109;28;20010;-43
2022/10/24 05:24:51;;;;;;;;;;;18.90;93.40;;;;;;5112362;28;19934;-42
2022/10/24 05:27:23;;;;;;;;;;;18.90;93.50;;;;;;5092804;28;20010;-44
2022/10/24 05:29:52;;;;;;;;;;;18.90;93.50;;;;;;5113942;28;19958;-44
2022/10/24 05:32:18;;;;;;;;;;;19.00;93.50;;;;;;5111047;28;19919;-51
2022/10/24 05:34:44;;;;;;;;;;;19.00;93.50;;;;;;5112398;28;19936;-42
2022/10/24 05:37:09;;;;;;;;;;;19.00;93.60;;;;;;5113433;28;20409;-42
2022/10/24 05:39:35;;;;;;;;;;;19.00;93.50;;;;;;5113436;28;19907;-43
2022/10/24 05:42:00;;;;;;;;;;;18.90;93.50;;;;;;5112814;28;19916;-43
2022/10/24 05:44:26;;;;;;;;;;;19.00;93.60;;;;;;5114031;28;19947;-42
2022/10/24 05:46:51;;;;;;;;;;;18.90;93.50;;;;;;5111724;28;19911;-43
2022/10/24 05:49:17;;;;;;;;;;;18.90;93.50;;;;;;5110513;28;20014;-46
2022/10/24 05:51:42;;;;;;;;;;;18.90;93.50;;;;;;5110333;28;19920;-44
2022/10/24 05:54:08;;;;;;;;;;;18.90;93.60;;;;;;5113496;28;20342;-46
2022/10/24 05:56:33;;;;;;;;;;;18.90;93.50;;;;;;5113722;28;19915;-45
2022/10/24 05:58:59;;;;;;;;;;;18.90;93.50;;;;;;5113859;28;19998;-45
2022/10/24 06:01:24;;;;;;;;;;;18.90;93.50;;;;;;5113325;28;20312;-45
2022/10/24 06:03:50;;;;;;;;;;;18.90;93.50;;;;;;5113640;28;19908;-45
2022/10/24 06:06:15;;;;;;;;;;;18.90;93.50;;;;;;5095335;28;19951;-44
2022/10/24 06:08:41;;;;;;;;;;;18.90;93.50;;;;;;5094991;28;19968;-45
2022/10/24 06:11:09;;;;;;;;;;;18.90;93.50;;;;;;5113347;28;20276;-47
2022/10/24 06:13:35;;;;;;;;;;;18.90;93.50;;;;;;5113580;28;19974;-44
2022/10/24 06:16:00;;;;;;;;;;;18.90;93.50;;;;;;5113694;28;20215;-45
2022/10/24 06:18:26;;;;;;;;;;;18.90;93.50;;;;;;5113159;28;19912;-42
2022/10/24 06:20:52;;;;;;;;;;;18.90;93.50;;;;;;5113351;28;19912;-44
2022/10/24 06:23:18;;;;;;;;;;;18.90;93.50;;;;;;5113519;28;19908;-44
2022/10/24 06:25:43;;;;;;;;;;;18.80;93.50;;;;;;5116665;28;19915;-42
2022/10/24 06:28:11;;;;;;;;;;;18.90;93.50;;;;;;5098538;28;20259;-43
2022/10/24 06:30:38;;;;;;;;;;;18.80;93.40;;;;;;5116923;28;19908;-42
2022/10/24 06:33:03;;;;;;;;;;;18.90;93.50;;;;;;5117145;28;19934;-43
2022/10/24 06:35:29;;;;;;;;;;;18.90;93.40;;;;;;5116629;28;20310;-45
2022/10/24 06:37:54;;;;;;;;;;;18.90;93.40;;;;;;5098634;28;19908;-42
2022/10/24 06:40:20;;;;;;;;;;;18.80;93.40;;;;;;5116953;28;19926;-43
2022/10/24 06:42:45;;;;;;;;;;;18.90;93.40;;;;;;5116810;28;19961;-43
2022/10/24 06:45:11;;;;;;;;;;;18.80;93.40;;;;;;5116679;28;19915;-44
2022/10/24 06:47:37;;;;;;;;;;;18.80;93.40;;;;;;5098209;28;19915;-46
2022/10/24 06:50:03;;;;;;;;;;;18.80;93.40;;;;;;5116214;28;19908;-45
2022/10/24 06:52:28;;;;;;;;;;;18.80;93.60;;;;;;5116057;28;19908;-48
2022/10/24 06:54:54;;;;;;;;;;;18.90;93.40;;;;;;5098663;28;20377;-42
2022/10/24 06:57:20;;;;;;;;;;;18.80;93.40;;;;;;5098489;28;20401;-42
2022/10/24 06:59:45;;;;;;;;;;;18.80;93.30;;;;;;5116439;28;19907;-43
2022/10/24 07:02:11;;;;;;;;;;;18.90;93.40;;;;;;5116031;28;19976;-44
2022/10/24 07:04:37;;;;;;;;;;;18.80;93.30;;;;;;5116055;28;19914;-48
2022/10/24 07:07:02;;;;;;;;;;;18.80;93.30;;;;;;5116043;28;20014;-43
2022/10/24 07:09:28;;;;;;;;;;;18.90;93.30;;;;;;5115934;28;20381;-43
2022/10/24 07:11:53;;;;;;;;;;;18.80;93.30;;;;;;5116190;28;20274;-42
2022/10/24 07:14:19;;;;;;;;;;;18.90;93.30;;;;;;5116180;28;19915;-43
2022/10/24 07:16:44;;;;;;;;;;;18.90;93.30;;;;;;5116067;28;19908;-48
2022/10/24 07:19:10;;;;;;;;;;;18.80;93.30;;;;;;5115984;28;20358;-48
2022/10/24 07:21:36;;;;;;;;;;;18.90;93.30;;;;;;5115767;28;19916;-47
2022/10/24 07:24:02;;;;;;;;;;;18.80;93.30;;;;;;5116004;28;20007;-46
2022/10/24 07:26:28;;;;;;;;;;;18.80;93.30;;;;;;5116037;28;19951;-43
2022/10/24 07:28:55;;;;;;;;;;;18.90;93.30;;;;;;5116397;28;19912;-43
2022/10/24 07:31:21;;;;;;;;;;;18.80;93.20;;;;;;5115773;28;20323;-44
2022/10/24 07:33:47;;;;;;;;;;;18.90;93.30;;;;;;5115746;28;19908;-43
2022/10/24 07:36:17;;;;;;;;;;;18.90;93.20;;;;;;5115326;28;20068;-44
2022/10/24 07:38:42;;;;;;;;;;;18.90;93.20;;;;;;5115839;28;19908;-45
2022/10/24 07:41:08;;;;;;;;;;;18.90;93.20;;;;;;5115799;28;19908;-45
2022/10/24 07:43:33;;;;;;;;;;;18.80;93.20;;;;;;5115527;28;20384;-45
2022/10/24 07:45:59;;;;;;;;;;;18.80;93.20;;;;;;5115521;28;19908;-44
2022/10/24 07:48:24;;;;;;;;;;;18.90;93.20;;;;;;5116124;28;19908;-46
2022/10/24 07:50:50;;;;;;;;;;;18.90;93.20;;;;;;5115355;28;19915;-48
2022/10/24 07:53:15;;;;;;;;;;;18.80;93.20;;;;;;5115278;28;20002;-43
2022/10/24 07:55:41;;;;;;;;;;;18.80;93.20;;;;;;5115640;28;19908;-46
2022/10/24 07:58:07;;;;;;;;;;;18.80;93.20;;;;;;5115501;28;19914;-42
2022/10/24 08:00:33;;;;;;;;;;;18.90;93.20;;;;;;5115485;28;19912;-45
2022/10/24 08:02:59;;;;;;;;;;;18.80;93.20;;;;;;5115099;28;19916;-43
2022/10/24 08:05:24;;;;;;;;;;;18.80;93.20;;;;;;5115606;28;19912;-44
2022/10/24 08:07:50;;;;;;;;;;;18.80;93.20;;;;;;5096651;28;20347;-45
2022/10/24 08:10:15;;;;;;;;;;;18.80;93.20;;;;;;5115193;28;20030;-47
2022/10/24 08:12:41;;;;;;;;;;;18.80;93.20;;;;;;5115257;28;19908;-46
2022/10/24 08:15:07;;;;;;;;;;;18.80;93.20;;;;;;5114942;28;19907;-44
2022/10/24 08:17:32;;;;;;;;;;;18.80;93.20;;;;;;5115066;28;20331;-45
2022/10/24 08:19:58;;;;;;;;;;;18.80;93.20;;;;;;5114862;28;20362;-44
2022/10/24 08:22:23;;;;;;;;;;;18.90;93.20;;;;;;5114989;28;19920;-45
2022/10/24 08:24:49;;;;;;;;;;;18.90;93.20;;;;;;5114874;28;19937;-42
2022/10/24 08:27:14;;;;;;;;;;;18.80;93.10;;;;;;5115153;28;19999;-45
2022/10/24 08:29:40;;;;;;;;;;;18.90;93.20;;;;;;5114890;28;19912;-44
2022/10/24 08:32:06;;;;;;;;;;;18.90;93.20;;;;;;5114961;28;19908;-43
2022/10/24 08:34:32;;;;;;;;;;;18.90;93.10;;;;;;5114299;28;19915;-44
2022/10/24 08:36:58;;;;;;;;;;;18.80;93.10;;;;;;5096534;28;20304;-44
2022/10/24 08:39:23;;;;;;;;;;;18.80;93.10;;;;;;5096279;28;19912;-44
2022/10/24 08:41:56;;;;;;;;;;;18.90;93.40;;;;;;5114377;28;19969;-43
2022/10/24 08:44:26;;;;;;;;;;;18.90;93.20;;;;;;5114451;28;19908;-43
2022/10/24 08:46:51;;;;;;;;;;;18.90;93.10;;;;;;5113598;28;20362;-43
2022/10/24 08:49:17;;;;;;;;;;;18.90;93.10;;;;;;5113962;28;19992;-43
2022/10/24 08:51:45;;;;;;;;;;;18.90;93.10;;;;;;5113825;28;19914;-43
2022/10/24 08:54:20;;;;;;;;;;;18.90;93.10;;;;;;5113326;28;19932;-43
2022/10/24 08:56:46;;;;;;;;;;;19.00;93.10;;;;;;5114396;28;19934;-44
2022/10/24 08:59:11;;;;;;;;;;;19.00;93.00;;;;;;5114231;28;20374;-46
2022/10/24 09:01:42;;;;;;;;;;;19.00;93.00;;;;;;5096092;28;19915;-46
2022/10/24 09:04:08;;;;;;;;;;;19.00;93.00;;;;;;5114496;28;20322;-44
2022/10/24 09:06:34;;;;;;;;;;;19.00;93.00;;;;;;5114289;28;19943;-44
2022/10/24 09:09:01;;;;;;;;;;;19.00;93.00;;;;;;5095605;28;19908;-43
2022/10/24 09:11:27;;;;;;;;;;;19.00;93.00;;;;;;5095514;28;19908;-44
2022/10/24 09:13:52;;;;;;;;;;;19.00;93.00;;;;;;5114425;28;20412;-48
2022/10/24 09:16:20;;;;;;;;;;;19.00;92.90;;;;;;5114228;28;19908;-43
2022/10/24 09:18:46;;;;;;;;;;;19.00;92.90;;;;;;5096068;28;19907;-45
2022/10/24 09:21:13;;;;;;;;;;;19.00;92.90;;;;;;5114117;28;19907;-45
2022/10/24 09:23:39;;;;;;;;;;;19.00;92.90;;;;;;5095832;28;19907;-44
2022/10/24 09:26:07;;;;;;;;;;;19.00;92.90;;;;;;5114100;28;19988;-42
2022/10/24 09:28:34;;;;;;;;;;;19.00;92.90;;;;;;5114064;28;19950;-46
2022/10/24 09:31:02;;;;;;;;;;;19.00;92.90;;;;;;5113917;28;19908;-46
2022/10/24 09:33:28;;;;;;;;;;;19.00;92.90;;;;;;5114055;28;19908;-47
2022/10/24 09:35:55;;;;;;;;;;;19.00;92.90;;;;;;5095634;28;19918;-44
2022/10/24 09:38:34;;;;;;;;;;;19.00;92.90;;;;;;5113788;28;19908;-47
2022/10/24 09:41:01;;;;;;;;;;;19.00;92.90;;;;;;5113973;28;19908;-46
2022/10/24 09:43:39;;;;;;;;;;;19.00;92.90;;;;;;5114092;28;19912;-46
2022/10/24 09:46:08;;;;;;;;;;;19.00;92.90;;;;;;5113788;28;19908;-44
2022/10/24 09:48:43;;;;;;;;;;;19.00;92.90;;;;;;5095673;28;19919;-44
2022/10/24 09:51:16;;;;;;;;;;;19.00;92.90;;;;;;5114035;28;19907;-42
2022/10/24 09:53:58;;;;;;;;;;;19.00;92.90;;;;;;5114039;28;20029;-43
2022/10/24 09:56:31;;;;;;;;;;;19.00;92.90;;;;;;5113995;28;19955;-43
2022/10/24 09:58:56;;;;;;;;;;;18.90;92.90;;;;;;5116791;28;19915;-45
2022/10/24 10:01:21;;;;;;;;;;;19.00;92.90;;;;;;5117529;28;20282;-44
2022/10/24 10:04:05;;;;;;;;;;;19.00;92.90;;;;;;5117511;28;19947;-43
2022/10/24 10:06:32;;;;;;;;;;;19.00;92.90;;;;;;5117671;28;19963;-44
2022/10/24 10:08:58;;;;;;;;;;;19.00;92.90;;;;;;5117577;28;19998;-46
2022/10/24 10:11:29;;;;;;;;;;;19.00;92.90;;;;;;5117686;28;19997;-49
2022/10/24 10:13:55;;;;;;;;;;;18.90;92.90;;;;;;5099241;28;19938;-43
2022/10/24 10:16:25;;;;;;;;;;;18.90;92.90;;;;;;5117381;28;20342;-43
2022/10/24 10:18:51;;;;;;;;;;;19.00;92.90;;;;;;5117195;28;20362;-45
2022/10/24 10:21:18;;;;;;;;;;;18.90;92.90;;;;;;5116927;28;19916;-46
2022/10/24 10:23:51;;;;;;;;;;;19.00;92.90;;;;;;5117378;28;20013;-43
2022/10/24 10:26:23;;;;;;;;;;;18.90;92.90;;;;;;5117889;28;19958;-44
2022/10/24 10:29:24;;;;;;;;;;;18.90;92.90;;;;;;5117423;28;20306;-43
2022/10/24 10:32:01;;;;;;;;;;;18.90;92.90;;;;;;5034300;28;19981;-42
2022/10/24 10:34:41;;;;;;;;;;;18.90;92.90;;;;;;5106438;28;19995;-43
2022/10/24 10:37:17;;;;;;;;;;;18.90;92.90;;;;;;5098919;28;20002;-45
2022/10/24 10:39:45;;;;;;;;;;;18.90;92.90;;;;;;5116860;28;19915;-43
2022/10/24 10:42:16;;;;;;;;;;;18.90;92.90;;;;;;5116543;28;19916;-42
2022/10/24 10:44:45;;;;;;;;;;;18.90;92.90;;;;;;5098382;28;19981;-43
2022/10/24 10:47:33;;;;;;;;;;;18.90;92.90;;;;;;5117265;28;19914;-42
2022/10/24 10:49:59;;;;;;;;;;;18.90;92.90;;;;;;5116932;28;19908;-43
2022/10/24 10:52:31;;;;;;;;;;;18.90;92.80;;;;;;5116763;28;19908;-42
2022/10/24 10:55:15;;;;;;;;;;;18.90;93.10;;;;;;5116465;28;20308;-44
2022/10/24 10:57:40;;;;;;;;;;;18.90;92.80;;;;;;5116704;28;19908;-46
2022/10/24 11:00:08;;;;;;;;;;;18.90;92.80;;;;;;5116449;28;19937;-46
2022/10/24 11:02:52;;;;;;;;;;;18.90;92.80;;;;;;5116487;28;19923;-46
2022/10/24 11:05:34;;;;;;;;;;;18.90;92.80;;;;;;5116248;28;20007;-45
2022/10/24 11:08:00;;;;;;;;;;;18.90;92.80;;;;;;5116659;28;19927;-44
2022/10/24 11:10:33;;;;;;;;;;;18.90;92.80;;;;;;5115632;28;20010;-44
2022/10/24 11:12:59;;;;;;;;;;;18.90;92.80;;;;;;5116532;28;20358;-43
2022/10/24 11:15:28;;;;;;;;;;;18.90;92.90;;;;;;5116288;28;19936;-48
2022/10/24 11:18:04;;;;;;;;;;;18.90;92.90;;;;;;5116372;28;19980;-43
2022/10/24 11:20:32;;;;;;;;;;;18.90;92.90;;;;;;5116100;28;20392;-45
2022/10/24 11:23:04;;;;;;;;;;;18.90;92.90;;;;;;5097771;28;19916;-43
2022/10/24 11:25:44;;;;;;;;;;;18.90;92.90;;;;;;5116048;28;20282;-43
2022/10/24 11:28:12;;;;;;;;;;;18.90;92.90;;;;;;5115784;28;19999;-45
2022/10/24 11:30:42;;;;;;;;;;;18.90;92.90;;;;;;5116100;28;19908;-45
2022/10/24 11:33:13;;;;;;;;;;;18.90;92.90;;;;;;5115739;28;19908;-45
2022/10/24 11:35:43;;;;;;;;;;;18.90;92.90;;;;;;5116123;28;19912;-46
2022/10/24 11:38:14;;;;;;;;;;;18.90;92.90;;;;;;5115429;28;19957;-48
2022/10/24 11:40:41;;;;;;;;;;;18.90;92.90;;;;;;5097592;28;19951;-46
2022/10/24 11:43:25;;;;;;;;;;;18.90;92.90;;;;;;5115858;28;20358;-47
2022/10/24 11:45:57;;;;;;;;;;;18.90;92.90;;;;;;5115923;28;19908;-44
2022/10/24 11:48:29;;;;;;;;;;;18.90;92.90;;;;;;5115279;28;20305;-43
2022/10/24 11:50:57;;;;;;;;;;;18.90;92.90;;;;;;5115366;28;19908;-46
2022/10/24 11:53:30;;;;;;;;;;;18.90;92.90;;;;;;5115375;28;20362;-45
2022/10/24 11:56:01;;;;;;;;;;;18.90;92.90;;;;;;5097098;28;20285;-43
2022/10/24 11:58:27;;;;;;;;;;;18.90;92.90;;;;;;5115755;28;19908;-43
2022/10/24 12:00:53;;;;;;;;;;;18.90;92.90;;;;;;5115295;28;19908;-45
2022/10/24 12:03:30;;;;;;;;;;;18.90;92.90;;;;;;5115090;28;20408;-44
2022/10/24 12:05:56;;;;;;;;;;;18.90;92.90;;;;;;5115372;28;19947;-42
2022/10/24 12:08:28;;;;;;;;;;;18.90;92.90;;;;;;5115376;28;19969;-43
2022/10/24 12:11:03;;;;;;;;;;;18.90;92.90;;;;;;5114878;28;19912;-43
2022/10/24 12:13:34;;;;;;;;;;;18.90;92.90;;;;;;5115352;28;19914;-42
2022/10/24 12:16:02;;;;;;;;;;;18.90;92.90;;;;;;5115099;28;19908;-43
2022/10/24 12:18:42;;;;;;;;;;;18.90;92.80;;;;;;5114564;28;19907;-43
2022/10/24 12:21:09;;;;;;;;;;;18.90;92.80;;;;;;5113959;28;19991;-48
2022/10/24 12:23:35;;;;;;;;;;;18.90;92.80;;;;;;5115273;28;19950;-44
2022/10/24 12:26:17;;;;;;;;;;;18.90;92.80;;;;;;5114859;28;19931;-45
2022/10/24 12:28:51;;;;;;;;;;;18.90;92.80;;;;;;5115149;28;19994;-49
2022/10/24 12:31:19;;;;;;;;;;;18.90;92.80;;;;;;5114967;28;19908;-46
2022/10/24 12:33:45;;;;;;;;;;;18.90;92.80;;;;;;5114639;28;19917;-45
2022/10/24 12:36:11;;;;;;;;;;;18.90;92.80;;;;;;5114331;28;20390;-46
2022/10/24 12:38:36;;;;;;;;;;;18.90;92.80;;;;;;5114534;28;19933;-43
2022/10/24 12:41:08;;;;;;;;;;;18.90;92.80;;;;;;5114391;28;19917;-43
2022/10/24 12:43:43;;;;;;;;;;;18.90;92.80;;;;;;5114543;28;19919;-46
2022/10/24 12:46:14;;;;;;;;;;;18.90;92.80;;;;;;5114535;28;20381;-45
2022/10/24 12:48:55;;;;;;;;;;;18.90;92.80;;;;;;5096119;28;19907;-46
2022/10/24 12:51:29;;;;;;;;;;;18.90;92.80;;;;;;5114358;28;19912;-43
2022/10/24 12:54:01;;;;;;;;;;;18.90;92.80;;;;;;5114212;28;19907;-42
2022/10/24 12:56:27;;;;;;;;;;;18.90;92.80;;;;;;5114428;28;19908;-45
2022/10/24 12:59:19;;;;;;;;;;;18.90;92.80;;;;;;5114421;28;19908;-44
2022/10/24 13:01:45;;;;;;;;;;;18.90;92.80;;;;;;5110282;28;20010;-44
2022/10/24 13:04:16;;;;;;;;;;;18.90;92.80;;;;;;5114221;28;19907;-49
2022/10/24 13:06:51;;;;;;;;;;;18.90;92.80;;;;;;5113854;28;19942;-45
2022/10/24 13:09:35;;;;;;;;;;;18.90;92.80;;;;;;5113832;28;19908;-42
2022/10/24 13:12:12;;;;;;;;;;;18.90;92.80;;;;;;5114033;28;19908;-45
2022/10/24 13:14:46;;;;;;;;;;;18.90;92.80;;;;;;5114438;28;19908;-46
2022/10/24 13:17:17;;;;;;;;;;;18.90;92.80;;;;;;5113792;28;19908;-44
2022/10/24 13:19:42;;;;;;;;;;;18.90;92.80;;;;;;5113987;28;19908;-45
2022/10/24 13:22:28;;;;;;;;;;;18.90;92.80;;;;;;5113963;28;19937;-43
2022/10/24 13:24:53;;;;;;;;;;;18.90;92.80;;;;;;5114471;28;19955;-45
2022/10/24 13:27:23;;;;;;;;;;;18.90;92.80;;;;;;5113882;28;19961;-44
2022/10/24 13:29:49;;;;;;;;;;;18.90;92.80;;;;;;5095660;28;19999;-43
2022/10/24 13:32:14;;;;;;;;;;;18.90;92.80;;;;;;5114464;28;20365;-44
2022/10/24 13:34:44;;;;;;;;;;;18.90;92.80;;;;;;5118518;28;20270;-46
2022/10/24 13:37:09;;;;;;;;;;;18.90;92.80;;;;;;5118244;28;19912;-46
2022/10/24 13:39:40;;;;;;;;;;;18.90;92.80;;;;;;5118185;28;19908;-44
2022/10/24 13:42:07;;;;;;;;;;;18.90;92.80;;;;;;5117764;28;20011;-44
2022/10/24 13:44:35;;;;;;;;;;;18.90;93.00;;;;;;5099093;28;19908;-46
2022/10/24 13:47:10;;;;;;;;;;;18.90;92.80;;;;;;5118055;28;19915;-44
2022/10/24 13:49:35;;;;;;;;;;;18.90;92.80;;;;;;5099430;28;19907;-44
2022/10/24 13:52:13;;;;;;;;;;;18.90;92.80;;;;;;5117694;28;20059;-44
2022/10/24 13:54:41;;;;;;;;;;;18.90;92.80;;;;;;5117551;28;19914;-43
2022/10/24 13:57:25;;;;;;;;;;;18.90;92.80;;;;;;5117624;28;19991;-43
2022/10/24 13:59:55;;;;;;;;;;;18.90;92.80;;;;;;5117785;28;20326;-44
2022/10/24 14:02:21;;;;;;;;;;;18.90;92.80;;;;;;5117557;28;19922;-44
2022/10/24 14:04:48;;;;;;;;;;;18.90;92.80;;;;;;5117402;28;19908;-46
2022/10/24 14:07:22;;;;;;;;;;;18.90;92.80;;;;;;5117223;28;20056;-46
2022/10/24 14:10:18;;;;;;;;;;;18.90;92.80;;;;;;5099238;28;19908;-44
2022/10/24 14:12:44;;;;;;;;;;;18.90;92.80;;;;;;5100315;28;20370;-45
2022/10/24 14:15:16;;;;;;;;;;;18.90;92.80;;;;;;5117386;28;19933;-45
2022/10/24 14:17:51;;;;;;;;;;;18.90;92.80;;;;;;5117086;28;19943;-43
2022/10/24 14:20:21;;;;;;;;;;;18.90;92.80;;;;;;5117111;28;20409;-44
2022/10/24 14:22:47;;;;;;;;;;;18.90;92.80;;;;;;5117070;28;20385;-47